RYR5YX LEPA-LIME
Flight info
| Callsign | RYR5YX |
|---|---|
| Flight time | 1h 24m |
| Altitude | 34000 |
| Route | ISTER DCT LUNOR DCT NESUL DCT NEGAT DCT OMEDA DCT RAPUR DCT TORTU DCT OLETI DCT ITCAP Q713 AMOXI T836 DIXER |
| Aircraft | B738/M-SDE2E3FGHIRWXY/LB1 |
Departure
| Time | 2026-05-05 16:58 |
|---|---|
| Airport | Palma de Mallorca Airport (LEPA) |
Arrival
| Time | 2026-05-05 18:23 |
|---|---|
| Airport | Il Caravaggio International Airport (LIME) |
| Time | Latitude | Longitude | Altitude | Speed | Heading |
|---|---|---|---|---|---|
| 2026-05-05 16:39 | 39.55004 | 2.73727 | 29 ft | 0 kts | 238° |
| 2026-05-05 16:48 | 39.55007 | 2.73734 | 29 ft | 4 kts | 238° |
| 2026-05-05 16:48 | 39.55021 | 2.73764 | 29 ft | 4 kts | 238° |
| 2026-05-05 16:48 | 39.55034 | 2.73790 | 29 ft | 2 kts | 238° |
| 2026-05-05 16:49 | 39.55044 | 2.73818 | 29 ft | 4 kts | 260° |
| 2026-05-05 16:49 | 39.55042 | 2.73847 | 29 ft | 4 kts | 317° |
| 2026-05-05 16:49 | 39.55021 | 2.73866 | 29 ft | 3 kts | 328° |
| 2026-05-05 16:49 | 39.55018 | 2.73868 | 29 ft | 1 kts | 328° |
| 2026-05-05 16:52 | 39.55025 | 2.73862 | 29 ft | 4 kts | 328° |
| 2026-05-05 16:52 | 39.55079 | 2.73820 | 29 ft | 13 kts | 328° |
| 2026-05-05 16:52 | 39.55146 | 2.73770 | 29 ft | 7 kts | 345° |
| 2026-05-05 16:52 | 39.55179 | 2.73806 | 29 ft | 7 kts | 59° |
| 2026-05-05 16:53 | 39.55219 | 2.73819 | 29 ft | 7 kts | 336° |
| 2026-05-05 16:53 | 39.55265 | 2.73783 | 29 ft | 8 kts | 328° |
| 2026-05-05 16:53 | 39.55325 | 2.73736 | 29 ft | 12 kts | 329° |
| 2026-05-05 16:53 | 39.55406 | 2.73672 | 29 ft | 15 kts | 329° |
| 2026-05-05 16:54 | 39.55505 | 2.73594 | 29 ft | 17 kts | 329° |
| 2026-05-05 16:54 | 39.55605 | 2.73516 | 29 ft | 15 kts | 328° |
| 2026-05-05 16:54 | 39.55657 | 2.73503 | 29 ft | 7 kts | 35° |
| 2026-05-05 16:54 | 39.55683 | 2.73559 | 29 ft | 7 kts | 60° |
| 2026-05-05 16:55 | 39.55712 | 2.73620 | 29 ft | 9 kts | 58° |
| 2026-05-05 16:55 | 39.55748 | 2.73695 | 29 ft | 11 kts | 58° |
| 2026-05-05 16:55 | 39.55791 | 2.73784 | 29 ft | 13 kts | 58° |
| 2026-05-05 16:55 | 39.55840 | 2.73889 | 29 ft | 14 kts | 59° |
| 2026-05-05 16:56 | 39.55895 | 2.74005 | 29 ft | 16 kts | 58° |
| 2026-05-05 16:56 | 39.55955 | 2.74133 | 29 ft | 17 kts | 58° |
| 2026-05-05 16:56 | 39.56025 | 2.74240 | 29 ft | 15 kts | 35° |
| 2026-05-05 16:56 | 39.56108 | 2.74313 | 29 ft | 14 kts | 34° |
| 2026-05-05 16:57 | 39.56190 | 2.74371 | 29 ft | 12 kts | 1° |
| 2026-05-05 16:57 | 39.56237 | 2.74300 | 29 ft | 12 kts | 264° |
| 2026-05-05 16:57 | 39.56215 | 2.74235 | 29 ft | 0 kts | 239° |
| 2026-05-05 16:57 | 39.56212 | 2.74228 | 29 ft | 9 kts | 239° |
| 2026-05-05 16:58 | 39.56052 | 2.73889 | 29 ft | 79 kts | 238° |
| 2026-05-05 16:58 | 39.55655 | 2.73050 | 29 ft | 137 kts | 238° |
| 2026-05-05 16:58 | 39.55098 | 2.71869 | 340 ft | 158 kts | 238° |
| 2026-05-05 16:58 | 39.54514 | 2.70645 | 1082 ft | 159 kts | 240° |
| 2026-05-05 16:59 | 39.53919 | 2.69393 | 1712 ft | 171 kts | 239° |
| 2026-05-05 16:59 | 39.53279 | 2.68064 | 2365 ft | 181 kts | 239° |
| 2026-05-05 16:59 | 39.52566 | 2.66584 | 2762 ft | 200 kts | 240° |
| 2026-05-05 16:59 | 39.51819 | 2.65028 | 3267 ft | 208 kts | 240° |
| 2026-05-05 17:00 | 39.51044 | 2.63424 | 3849 ft | 213 kts | 241° |
| 2026-05-05 17:00 | 39.50239 | 2.61732 | 4304 ft | 230 kts | 237° |
| 2026-05-05 17:00 | 39.49017 | 2.60384 | 4900 ft | 249 kts | 208° |
| 2026-05-05 17:00 | 39.47250 | 2.59923 | 5465 ft | 269 kts | 183° |
| 2026-05-05 17:01 | 39.45376 | 2.60476 | 6298 ft | 280 kts | 158° |
| 2026-05-05 17:01 | 39.43853 | 2.62049 | 7041 ft | 293 kts | 131° |
| 2026-05-05 17:01 | 39.43012 | 2.64476 | 7799 ft | 303 kts | 101° |
| 2026-05-05 17:01 | 39.42867 | 2.67207 | 8652 ft | 305 kts | 93° |
| 2026-05-05 17:02 | 39.42868 | 2.69954 | 9462 ft | 308 kts | 92° |
| 2026-05-05 17:02 | 39.42904 | 2.72755 | 10144 ft | 314 kts | 92° |
| 2026-05-05 17:02 | 39.42937 | 2.75678 | 10424 ft | 336 kts | 92° |
| 2026-05-05 17:02 | 39.42956 | 2.78770 | 10863 ft | 349 kts | 92° |
| 2026-05-05 17:03 | 39.42965 | 2.81934 | 11518 ft | 354 kts | 93° |
| 2026-05-05 17:03 | 39.42965 | 2.85136 | 12245 ft | 358 kts | 93° |
| 2026-05-05 17:03 | 39.42957 | 2.88378 | 12992 ft | 363 kts | 94° |
| 2026-05-05 17:03 | 39.42944 | 2.91667 | 13676 ft | 369 kts | 94° |
| 2026-05-05 17:04 | 39.42929 | 2.94991 | 13870 ft | 370 kts | 94° |
| 2026-05-05 17:04 | 39.42913 | 2.98314 | 13891 ft | 370 kts | 94° |
| 2026-05-05 17:04 | 39.42895 | 3.01648 | 13900 ft | 371 kts | 94° |
| 2026-05-05 17:04 | 39.42875 | 3.04990 | 13903 ft | 371 kts | 94° |
| 2026-05-05 17:05 | 39.42855 | 3.08329 | 13891 ft | 371 kts | 94° |
| 2026-05-05 17:05 | 39.42834 | 3.11664 | 13893 ft | 371 kts | 94° |
| 2026-05-05 17:05 | 39.42812 | 3.15006 | 13895 ft | 371 kts | 94° |
| 2026-05-05 17:05 | 39.42789 | 3.18343 | 13895 ft | 371 kts | 94° |
| 2026-05-05 17:06 | 39.42786 | 3.21695 | 14077 ft | 378 kts | 90° |
| 2026-05-05 17:06 | 39.43249 | 3.25062 | 14786 ft | 383 kts | 73° |
| 2026-05-05 17:06 | 39.44298 | 3.28231 | 15604 ft | 385 kts | 61° |
| 2026-05-05 17:06 | 39.45653 | 3.31243 | 16292 ft | 390 kts | 59° |
| 2026-05-05 17:07 | 39.47065 | 3.34264 | 16949 ft | 395 kts | 58° |
| 2026-05-05 17:07 | 39.48503 | 3.37323 | 17620 ft | 400 kts | 58° |
| 2026-05-05 17:07 | 39.49463 | 3.39371 | 18078 ft | 403 kts | 58° |
| 2026-05-05 17:07 | 39.51413 | 3.43567 | 18864 ft | 410 kts | 58° |
| 2026-05-05 17:08 | 39.52382 | 3.45671 | 19246 ft | 413 kts | 58° |
| 2026-05-05 17:08 | 39.53858 | 3.48888 | 19798 ft | 419 kts | 58° |
| 2026-05-05 17:08 | 39.55349 | 3.52156 | 20324 ft | 424 kts | 59° |
| 2026-05-05 17:08 | 39.56878 | 3.55514 | 20921 ft | 428 kts | 59° |
| 2026-05-05 17:09 | 39.58373 | 3.58808 | 21487 ft | 432 kts | 59° |
| 2026-05-05 17:09 | 39.59906 | 3.62187 | 22032 ft | 437 kts | 59° |
| 2026-05-05 17:09 | 39.61453 | 3.65603 | 22560 ft | 442 kts | 58° |
| 2026-05-05 17:09 | 39.63015 | 3.69053 | 23095 ft | 446 kts | 58° |
| 2026-05-05 17:10 | 39.64590 | 3.72538 | 23584 ft | 450 kts | 59° |
| 2026-05-05 17:10 | 39.66178 | 3.76055 | 24009 ft | 453 kts | 59° |
| 2026-05-05 17:10 | 39.67778 | 3.79602 | 24453 ft | 456 kts | 59° |
| 2026-05-05 17:10 | 39.69385 | 3.83167 | 24882 ft | 459 kts | 59° |
| 2026-05-05 17:11 | 39.71000 | 3.86755 | 25312 ft | 462 kts | 59° |
| 2026-05-05 17:11 | 39.72623 | 3.90367 | 25736 ft | 465 kts | 59° |
| 2026-05-05 17:11 | 39.74258 | 3.94007 | 26161 ft | 468 kts | 59° |
| 2026-05-05 17:11 | 39.75904 | 3.97678 | 26507 ft | 473 kts | 59° |
| 2026-05-05 17:12 | 39.77565 | 4.01384 | 26890 ft | 476 kts | 59° |
| 2026-05-05 17:12 | 39.79234 | 4.05116 | 27299 ft | 478 kts | 60° |
| 2026-05-05 17:12 | 39.80909 | 4.08863 | 27690 ft | 481 kts | 60° |
| 2026-05-05 17:12 | 39.82596 | 4.12641 | 28064 ft | 484 kts | 60° |
| 2026-05-05 17:13 | 39.84275 | 4.16409 | 28423 ft | 487 kts | 60° |
| 2026-05-05 17:13 | 39.85980 | 4.20237 | 28751 ft | 490 kts | 60° |
| 2026-05-05 17:13 | 39.87688 | 4.24078 | 29197 ft | 491 kts | 60° |
| 2026-05-05 17:13 | 39.89401 | 4.27933 | 29572 ft | 493 kts | 60° |
| 2026-05-05 17:14 | 39.91119 | 4.31806 | 29937 ft | 495 kts | 60° |
| 2026-05-05 17:14 | 39.92841 | 4.35694 | 30310 ft | 495 kts | 60° |
| 2026-05-05 17:14 | 39.94557 | 4.39571 | 30748 ft | 493 kts | 60° |
| 2026-05-05 17:14 | 39.96271 | 4.43447 | 31115 ft | 495 kts | 61° |
| 2026-05-05 17:15 | 39.97991 | 4.47345 | 31425 ft | 496 kts | 61° |
| 2026-05-05 17:15 | 39.99710 | 4.51246 | 31798 ft | 496 kts | 61° |
| 2026-05-05 17:15 | 40.01425 | 4.55141 | 32223 ft | 495 kts | 61° |
| 2026-05-05 17:15 | 40.03134 | 4.59028 | 32642 ft | 492 kts | 61° |
| 2026-05-05 17:16 | 40.04826 | 4.62879 | 33193 ft | 487 kts | 61° |
| 2026-05-05 17:16 | 40.06505 | 4.66705 | 33646 ft | 485 kts | 61° |
| 2026-05-05 17:16 | 40.08185 | 4.70520 | 33919 ft | 486 kts | 61° |
| 2026-05-05 17:16 | 40.09887 | 4.74368 | 33896 ft | 492 kts | 61° |
| 2026-05-05 17:17 | 40.13309 | 4.82093 | 33888 ft | 488 kts | 61° |
| 2026-05-05 17:17 | 40.16681 | 4.89728 | 33908 ft | 485 kts | 61° |
| 2026-05-05 17:18 | 40.20053 | 4.97396 | 33891 ft | 488 kts | 61° |
| 2026-05-05 17:18 | 40.23435 | 5.05110 | 33902 ft | 490 kts | 61° |
| 2026-05-05 17:19 | 40.26825 | 5.12857 | 33900 ft | 491 kts | 61° |
| 2026-05-05 17:19 | 40.30188 | 5.20563 | 33901 ft | 490 kts | 61° |
| 2026-05-05 17:20 | 40.33563 | 5.28319 | 33899 ft | 489 kts | 61° |
| 2026-05-05 17:20 | 40.36926 | 5.36064 | 33889 ft | 488 kts | 62° |
| 2026-05-05 17:21 | 40.40269 | 5.43779 | 33897 ft | 486 kts | 62° |
| 2026-05-05 17:22 | 40.45258 | 5.55318 | 33904 ft | 483 kts | 62° |
| 2026-05-05 17:22 | 40.48565 | 5.62995 | 33905 ft | 482 kts | 62° |
| 2026-05-05 17:23 | 40.51862 | 5.70669 | 33908 ft | 482 kts | 62° |
| 2026-05-05 17:23 | 40.55150 | 5.78341 | 33898 ft | 481 kts | 62° |
| 2026-05-05 17:24 | 40.58430 | 5.86014 | 33909 ft | 481 kts | 62° |
| 2026-05-05 17:24 | 40.61707 | 5.93699 | 33909 ft | 482 kts | 62° |
| 2026-05-05 17:25 | 40.64981 | 6.01398 | 33910 ft | 482 kts | 62° |
| 2026-05-05 17:25 | 40.68256 | 6.09117 | 33888 ft | 483 kts | 62° |
| 2026-05-05 17:26 | 40.71527 | 6.16847 | 33913 ft | 483 kts | 62° |
| 2026-05-05 17:26 | 40.74795 | 6.24590 | 33940 ft | 483 kts | 62° |
| 2026-05-05 17:27 | 40.78043 | 6.32303 | 33914 ft | 484 kts | 62° |
| 2026-05-05 17:27 | 40.81312 | 6.40087 | 33921 ft | 485 kts | 62° |
| 2026-05-05 17:28 | 40.84597 | 6.47931 | 33900 ft | 485 kts | 62° |
| 2026-05-05 17:28 | 40.87835 | 6.55683 | 33923 ft | 485 kts | 62° |
| 2026-05-05 17:29 | 40.91089 | 6.63494 | 33926 ft | 485 kts | 62° |
| 2026-05-05 17:29 | 40.94336 | 6.71305 | 33943 ft | 485 kts | 62° |
| 2026-05-05 17:30 | 40.97581 | 6.79136 | 33924 ft | 485 kts | 62° |
| 2026-05-05 17:30 | 41.00823 | 6.86979 | 33910 ft | 485 kts | 62° |
| 2026-05-05 17:31 | 41.04054 | 6.94816 | 33934 ft | 485 kts | 62° |
| 2026-05-05 17:31 | 41.07284 | 7.02667 | 33937 ft | 485 kts | 62° |
| 2026-05-05 17:32 | 41.10509 | 7.10523 | 33926 ft | 485 kts | 62° |
| 2026-05-05 17:32 | 41.13732 | 7.18387 | 33941 ft | 486 kts | 62° |
| 2026-05-05 17:33 | 41.16953 | 7.26268 | 33939 ft | 486 kts | 63° |
| 2026-05-05 17:33 | 41.20170 | 7.34161 | 33940 ft | 486 kts | 63° |
| 2026-05-05 17:34 | 41.23381 | 7.42063 | 33942 ft | 486 kts | 63° |
| 2026-05-05 17:34 | 41.26586 | 7.49970 | 33937 ft | 486 kts | 63° |
| 2026-05-05 17:35 | 41.29786 | 7.57885 | 33940 ft | 486 kts | 63° |
| 2026-05-05 17:35 | 41.32979 | 7.65806 | 33944 ft | 486 kts | 63° |
| 2026-05-05 17:36 | 41.36146 | 7.73681 | 33941 ft | 486 kts | 63° |
| 2026-05-05 17:36 | 41.39393 | 7.81578 | 33939 ft | 486 kts | 56° |
| 2026-05-05 17:36 | 41.41560 | 7.85013 | 33954 ft | 484 kts | 40° |
| 2026-05-05 17:37 | 41.44187 | 7.87763 | 33958 ft | 479 kts | 27° |
| 2026-05-05 17:37 | 41.50183 | 7.91331 | 33954 ft | 471 kts | 15° |
| 2026-05-05 17:38 | 41.56313 | 7.94493 | 33957 ft | 473 kts | 16° |
| 2026-05-05 17:38 | 41.62451 | 7.97732 | 33939 ft | 475 kts | 16° |
| 2026-05-05 17:39 | 41.68594 | 8.01039 | 33944 ft | 476 kts | 17° |
| 2026-05-05 17:39 | 41.74747 | 8.04374 | 33957 ft | 478 kts | 17° |
| 2026-05-05 17:40 | 41.80911 | 8.07720 | 33951 ft | 478 kts | 17° |
| 2026-05-05 17:40 | 41.87078 | 8.11073 | 33950 ft | 478 kts | 17° |
| 2026-05-05 17:41 | 41.93246 | 8.14433 | 33962 ft | 479 kts | 17° |
| 2026-05-05 17:41 | 41.99421 | 8.17802 | 33951 ft | 479 kts | 17° |
| 2026-05-05 17:42 | 42.05595 | 8.21178 | 33948 ft | 479 kts | 17° |
| 2026-05-05 17:42 | 42.11774 | 8.24565 | 33970 ft | 479 kts | 17° |
| 2026-05-05 17:43 | 42.17960 | 8.27962 | 33952 ft | 480 kts | 17° |
| 2026-05-05 17:43 | 42.24156 | 8.31373 | 33946 ft | 481 kts | 17° |
| 2026-05-05 17:44 | 42.30355 | 8.34792 | 33924 ft | 482 kts | 17° |
| 2026-05-05 17:44 | 42.36556 | 8.38219 | 33934 ft | 482 kts | 17° |
| 2026-05-05 17:45 | 42.42759 | 8.41657 | 33931 ft | 481 kts | 17° |
| 2026-05-05 17:45 | 42.48954 | 8.45099 | 33934 ft | 481 kts | 17° |
| 2026-05-05 17:46 | 42.55141 | 8.48544 | 33937 ft | 481 kts | 17° |
| 2026-05-05 17:46 | 42.61323 | 8.51994 | 33934 ft | 480 kts | 17° |
| 2026-05-05 17:47 | 42.67501 | 8.55448 | 33935 ft | 480 kts | 17° |
| 2026-05-05 17:47 | 42.73670 | 8.58905 | 33936 ft | 480 kts | 17° |
| 2026-05-05 17:48 | 42.79839 | 8.62370 | 33938 ft | 479 kts | 17° |
| 2026-05-05 17:48 | 42.86005 | 8.65840 | 33941 ft | 479 kts | 17° |
| 2026-05-05 17:49 | 42.92168 | 8.69314 | 33957 ft | 480 kts | 17° |
| 2026-05-05 17:49 | 42.98334 | 8.72790 | 33934 ft | 480 kts | 17° |
| 2026-05-05 17:50 | 43.04463 | 8.76252 | 33947 ft | 479 kts | 17° |
| 2026-05-05 17:50 | 43.10629 | 8.79743 | 33969 ft | 479 kts | 16° |
| 2026-05-05 17:51 | 43.16788 | 8.83240 | 33953 ft | 479 kts | 16° |
| 2026-05-05 17:51 | 43.22953 | 8.86747 | 33950 ft | 479 kts | 16° |
| 2026-05-05 17:52 | 43.29105 | 8.90256 | 33974 ft | 479 kts | 16° |
| 2026-05-05 17:52 | 43.35265 | 8.93775 | 33960 ft | 479 kts | 16° |
| 2026-05-05 17:53 | 43.41559 | 8.96300 | 33947 ft | 463 kts | 358° |
| 2026-05-05 17:53 | 43.47935 | 8.97022 | 33969 ft | 459 kts | 355° |
| 2026-05-05 17:54 | 43.54320 | 8.97688 | 33957 ft | 461 kts | 356° |
| 2026-05-05 17:54 | 43.59646 | 8.98303 | 33955 ft | 463 kts | 356° |
| 2026-05-05 17:55 | 43.66073 | 8.99082 | 33949 ft | 463 kts | 356° |
| 2026-05-05 17:55 | 43.72398 | 8.99863 | 33929 ft | 445 kts | 356° |
| 2026-05-05 17:55 | 43.75439 | 9.00238 | 33930 ft | 432 kts | 356° |
| 2026-05-05 17:56 | 43.78386 | 9.00598 | 33902 ft | 420 kts | 355° |
| 2026-05-05 17:56 | 43.81279 | 9.00947 | 33644 ft | 415 kts | 355° |
| 2026-05-05 17:56 | 43.84156 | 9.01283 | 33106 ft | 417 kts | 355° |
| 2026-05-05 17:56 | 43.87106 | 9.01615 | 32089 ft | 434 kts | 355° |
| 2026-05-05 17:57 | 43.90151 | 9.01959 | 31384 ft | 441 kts | 356° |
| 2026-05-05 17:57 | 43.93208 | 9.02319 | 30934 ft | 441 kts | 356° |
| 2026-05-05 17:57 | 43.96266 | 9.02687 | 30503 ft | 440 kts | 356° |
| 2026-05-05 17:57 | 43.99305 | 9.03054 | 30125 ft | 437 kts | 356° |
| 2026-05-05 17:58 | 44.02325 | 9.03418 | 29719 ft | 434 kts | 356° |
| 2026-05-05 17:58 | 44.05327 | 9.03778 | 29310 ft | 431 kts | 356° |
| 2026-05-05 17:58 | 44.08295 | 9.04133 | 28955 ft | 426 kts | 357° |
| 2026-05-05 17:58 | 44.11240 | 9.04483 | 28552 ft | 423 kts | 357° |
| 2026-05-05 17:59 | 44.14161 | 9.04831 | 28182 ft | 419 kts | 357° |
| 2026-05-05 17:59 | 44.17060 | 9.05175 | 27798 ft | 416 kts | 358° |
| 2026-05-05 17:59 | 44.19934 | 9.05516 | 27432 ft | 413 kts | 358° |
| 2026-05-05 17:59 | 44.22788 | 9.05856 | 27063 ft | 410 kts | 358° |
| 2026-05-05 18:00 | 44.25623 | 9.06193 | 26718 ft | 407 kts | 358° |
| 2026-05-05 18:00 | 44.28439 | 9.06529 | 26352 ft | 405 kts | 358° |
| 2026-05-05 18:00 | 44.31241 | 9.06863 | 25993 ft | 403 kts | 358° |
| 2026-05-05 18:00 | 44.34024 | 9.07196 | 25636 ft | 401 kts | 359° |
| 2026-05-05 18:01 | 44.36797 | 9.07528 | 25282 ft | 399 kts | 359° |
| 2026-05-05 18:01 | 44.39555 | 9.07914 | 24927 ft | 400 kts | 5° |
| 2026-05-05 18:01 | 44.42209 | 9.09164 | 24524 ft | 407 kts | 26° |
| 2026-05-05 18:01 | 44.44476 | 9.11412 | 24298 ft | 404 kts | 44° |
| 2026-05-05 18:02 | 44.46351 | 9.14374 | 24087 ft | 399 kts | 51° |
| 2026-05-05 18:02 | 44.48086 | 9.17305 | 23829 ft | 395 kts | 51° |
| 2026-05-05 18:02 | 44.49833 | 9.20264 | 23516 ft | 393 kts | 51° |
| 2026-05-05 18:02 | 44.51586 | 9.23194 | 23113 ft | 392 kts | 50° |
| 2026-05-05 18:03 | 44.53345 | 9.26095 | 22750 ft | 390 kts | 50° |
| 2026-05-05 18:03 | 44.55101 | 9.28976 | 22386 ft | 388 kts | 50° |
| 2026-05-05 18:03 | 44.56847 | 9.31845 | 22044 ft | 386 kts | 50° |
| 2026-05-05 18:03 | 44.58756 | 9.34470 | 21649 ft | 384 kts | 32° |
| 2026-05-05 18:04 | 44.61151 | 9.35993 | 21385 ft | 374 kts | 11° |
| 2026-05-05 18:04 | 44.63681 | 9.36418 | 21069 ft | 362 kts | 352° |
| 2026-05-05 18:04 | 44.66181 | 9.36200 | 20751 ft | 359 kts | 350° |
| 2026-05-05 18:04 | 44.68665 | 9.35910 | 20392 ft | 357 kts | 349° |
| 2026-05-05 18:05 | 44.71130 | 9.35607 | 20065 ft | 355 kts | 349° |
| 2026-05-05 18:05 | 44.73585 | 9.35318 | 19721 ft | 354 kts | 351° |
| 2026-05-05 18:05 | 44.76033 | 9.35040 | 19381 ft | 352 kts | 351° |
| 2026-05-05 18:05 | 44.78468 | 9.34777 | 19052 ft | 350 kts | 351° |
| 2026-05-05 18:06 | 44.80901 | 9.34518 | 18713 ft | 351 kts | 351° |
| 2026-05-05 18:06 | 44.82511 | 9.34349 | 18483 ft | 351 kts | 351° |
| 2026-05-05 18:06 | 44.85767 | 9.34007 | 17998 ft | 351 kts | 351° |
| 2026-05-05 18:06 | 44.88199 | 9.33754 | 17619 ft | 350 kts | 351° |
| 2026-05-05 18:07 | 44.90618 | 9.33502 | 17286 ft | 347 kts | 351° |
| 2026-05-05 18:07 | 44.93023 | 9.33251 | 16941 ft | 346 kts | 351° |
| 2026-05-05 18:07 | 44.95414 | 9.33000 | 16595 ft | 344 kts | 351° |
| 2026-05-05 18:07 | 44.97793 | 9.32751 | 16276 ft | 342 kts | 351° |
| 2026-05-05 18:08 | 45.00127 | 9.32507 | 15944 ft | 340 kts | 351° |
| 2026-05-05 18:08 | 45.02482 | 9.32266 | 15617 ft | 339 kts | 353° |
| 2026-05-05 18:08 | 45.04828 | 9.32700 | 15248 ft | 346 kts | 18° |
| 2026-05-05 18:08 | 45.06874 | 9.34481 | 14934 ft | 348 kts | 44° |
| 2026-05-05 18:09 | 45.08267 | 9.37236 | 14673 ft | 344 kts | 66° |
| 2026-05-05 18:09 | 45.08903 | 9.40466 | 14367 ft | 340 kts | 82° |
| 2026-05-05 18:09 | 45.09276 | 9.43766 | 14039 ft | 339 kts | 83° |
| 2026-05-05 18:09 | 45.09619 | 9.47058 | 13678 ft | 339 kts | 83° |
| 2026-05-05 18:10 | 45.09966 | 9.50361 | 13281 ft | 339 kts | 83° |
| 2026-05-05 18:10 | 45.10321 | 9.53645 | 12931 ft | 337 kts | 83° |
| 2026-05-05 18:10 | 45.10682 | 9.56914 | 12594 ft | 335 kts | 83° |
| 2026-05-05 18:10 | 45.11046 | 9.60158 | 12263 ft | 333 kts | 83° |
| 2026-05-05 18:11 | 45.11406 | 9.63361 | 11912 ft | 326 kts | 83° |
| 2026-05-05 18:11 | 45.11758 | 9.66488 | 11637 ft | 315 kts | 83° |
| 2026-05-05 18:11 | 45.12098 | 9.69473 | 11507 ft | 301 kts | 81° |
| 2026-05-05 18:11 | 45.12857 | 9.72171 | 11364 ft | 295 kts | 53° |
| 2026-05-05 18:12 | 45.14347 | 9.74141 | 10886 ft | 298 kts | 28° |
| 2026-05-05 18:12 | 45.16238 | 9.75421 | 10339 ft | 304 kts | 22° |
| 2026-05-05 18:12 | 45.18165 | 9.76602 | 10070 ft | 298 kts | 21° |
| 2026-05-05 18:12 | 45.20066 | 9.77754 | 9741 ft | 296 kts | 21° |
| 2026-05-05 18:13 | 45.21951 | 9.78901 | 9461 ft | 296 kts | 22° |
| 2026-05-05 18:13 | 45.23836 | 9.80058 | 9167 ft | 295 kts | 22° |
| 2026-05-05 18:13 | 45.25713 | 9.81216 | 8909 ft | 293 kts | 22° |
| 2026-05-05 18:13 | 45.27580 | 9.82374 | 8637 ft | 292 kts | 22° |
| 2026-05-05 18:14 | 45.29437 | 9.83530 | 8381 ft | 291 kts | 22° |
| 2026-05-05 18:14 | 45.31287 | 9.84684 | 8109 ft | 289 kts | 22° |
| 2026-05-05 18:14 | 45.33121 | 9.85830 | 7830 ft | 287 kts | 22° |
| 2026-05-05 18:14 | 45.34943 | 9.86971 | 7558 ft | 285 kts | 22° |
| 2026-05-05 18:15 | 45.36748 | 9.88101 | 7298 ft | 283 kts | 22° |
| 2026-05-05 18:15 | 45.38520 | 9.89213 | 7027 ft | 281 kts | 22° |
| 2026-05-05 18:15 | 45.40313 | 9.90338 | 6725 ft | 281 kts | 22° |
| 2026-05-05 18:15 | 45.42085 | 9.91451 | 6432 ft | 275 kts | 22° |
| 2026-05-05 18:16 | 45.43833 | 9.92548 | 5995 ft | 274 kts | 22° |
| 2026-05-05 18:16 | 45.45574 | 9.93642 | 5668 ft | 273 kts | 22° |
| 2026-05-05 18:16 | 45.47304 | 9.94731 | 5409 ft | 271 kts | 23° |
| 2026-05-05 18:16 | 45.49020 | 9.95810 | 5156 ft | 268 kts | 22° |
| 2026-05-05 18:17 | 45.50808 | 9.96405 | 4887 ft | 264 kts | 358° |
| 2026-05-05 18:17 | 45.52612 | 9.96278 | 4658 ft | 260 kts | 356° |
| 2026-05-05 18:17 | 45.54413 | 9.96169 | 4392 ft | 256 kts | 357° |
| 2026-05-05 18:17 | 45.56164 | 9.96080 | 4125 ft | 248 kts | 358° |
| 2026-05-05 18:18 | 45.57839 | 9.95996 | 3895 ft | 236 kts | 358° |
| 2026-05-05 18:18 | 45.59455 | 9.95913 | 3658 ft | 229 kts | 358° |
| 2026-05-05 18:18 | 45.60994 | 9.95732 | 3515 ft | 215 kts | 344° |
| 2026-05-05 18:18 | 45.62141 | 9.94557 | 3396 ft | 200 kts | 299° |
| 2026-05-05 18:19 | 45.62614 | 9.92756 | 3367 ft | 192 kts | 288° |
| 2026-05-05 18:19 | 45.63030 | 9.90952 | 3326 ft | 190 kts | 286° |
| 2026-05-05 18:19 | 45.63384 | 9.89155 | 3160 ft | 185 kts | 284° |
| 2026-05-05 18:19 | 45.63709 | 9.87391 | 2919 ft | 181 kts | 284° |
| 2026-05-05 18:20 | 45.64022 | 9.85681 | 2707 ft | 174 kts | 284° |
| 2026-05-05 18:20 | 45.64318 | 9.84069 | 2500 ft | 161 kts | 285° |
| 2026-05-05 18:20 | 45.64594 | 9.82561 | 2222 ft | 153 kts | 285° |
| 2026-05-05 18:20 | 45.64856 | 9.81119 | 2035 ft | 150 kts | 284° |
| 2026-05-05 18:21 | 45.65120 | 9.79679 | 1833 ft | 150 kts | 285° |
| 2026-05-05 18:21 | 45.65383 | 9.78247 | 1630 ft | 148 kts | 285° |
| 2026-05-05 18:21 | 45.65645 | 9.76832 | 1426 ft | 147 kts | 285° |
| 2026-05-05 18:21 | 45.65907 | 9.75428 | 1237 ft | 146 kts | 286° |
| 2026-05-05 18:22 | 45.66167 | 9.74032 | 1045 ft | 145 kts | 285° |
| 2026-05-05 18:22 | 45.66421 | 9.72644 | 853 ft | 144 kts | 286° |
| 2026-05-05 18:22 | 45.66670 | 9.71317 | 787 ft | 123 kts | 284° |
| 2026-05-05 18:22 | 45.66834 | 9.70425 | 786 ft | 62 kts | 284° |
| 2026-05-05 18:23 | 45.66890 | 9.70072 | 786 ft | 22 kts | 269° |
| 2026-05-05 18:23 | 45.66850 | 9.69912 | 786 ft | 15 kts | 242° |
| 2026-05-05 18:23 | 45.66820 | 9.69830 | 786 ft | 6 kts | 242° |
| 2026-05-05 18:23 | 45.66799 | 9.69789 | 786 ft | 3 kts | 209° |
| 2026-05-05 18:24 | 45.66781 | 9.69800 | 786 ft | 3 kts | 127° |
| 2026-05-05 18:24 | 45.66774 | 9.69838 | 786 ft | 4 kts | 103° |
| 2026-05-05 18:24 | 45.66766 | 9.69879 | 786 ft | 4 kts | 108° |
| 2026-05-05 18:24 | 45.66740 | 9.69887 | 786 ft | 4 kts | 192° |
| 2026-05-05 18:25 | 45.66711 | 9.69877 | 786 ft | 4 kts | 197° |
| 2026-05-05 18:25 | 45.66692 | 9.69870 | 786 ft | 4 kts | 194° |
| 2026-05-05 18:25 | 45.66673 | 9.69862 | 786 ft | 1 kts | 195° |
| 2026-05-05 18:25 | 45.66672 | 9.69862 | 786 ft | 0 kts | 195° |